createdAt,value
2022-08-11T00:02:34.030Z,21.34
2022-08-11T00:05:09.186Z,21.22
2022-08-11T00:07:44.793Z,21.06
2022-08-11T00:10:15.208Z,21.24
2022-08-11T00:12:45.106Z,21.22
2022-08-11T00:15:13.997Z,21.24
2022-08-11T00:17:44.975Z,21.23
2022-08-11T00:20:16.846Z,21.33
2022-08-11T00:22:47.516Z,21.34
2022-08-11T00:25:20.165Z,21.16
2022-08-11T00:27:49.294Z,20.98
2022-08-11T00:30:18.011Z,21.00
2022-08-11T00:32:56.216Z,20.80
2022-08-11T00:35:53.665Z,20.95
2022-08-11T00:38:18.795Z,20.93
2022-08-11T00:40:56.145Z,21.07
2022-08-11T00:43:34.114Z,21.06
2022-08-11T00:46:17.538Z,21.00
2022-08-11T00:49:03.138Z,20.92
2022-08-11T00:52:04.256Z,20.66
2022-08-11T00:54:59.463Z,20.80
2022-08-11T00:57:53.774Z,20.78
2022-08-11T01:00:23.370Z,20.61
2022-08-11T01:03:30.962Z,20.59
2022-08-11T01:06:29.296Z,20.68
2022-08-11T01:09:26.923Z,20.69
2022-08-11T01:12:20.517Z,20.69
2022-08-11T01:15:25.445Z,20.42
2022-08-11T01:18:18.799Z,20.52
2022-08-11T01:21:26.492Z,20.48
2022-08-11T01:24:57.518Z,20.38
2022-08-11T01:27:56.540Z,20.27
2022-08-11T01:30:54.927Z,20.23
2022-08-11T01:34:04.302Z,20.29
2022-08-11T01:37:17.171Z,20.15
2022-08-11T01:40:18.861Z,20.08
2022-08-11T01:44:01.001Z,20.09
2022-08-11T01:46:34.539Z,20.29
2022-08-11T01:50:05.160Z,20.40
2022-08-11T01:52:20.497Z,20.08
2022-08-11T01:55:13.926Z,20.30
2022-08-11T01:57:48.551Z,20.19
2022-08-11T02:00:21.819Z,19.83
2022-08-11T02:03:02.337Z,19.97
2022-08-11T02:06:01.304Z,20.00
2022-08-11T02:08:50.722Z,19.93
2022-08-11T02:11:35.248Z,19.84
2022-08-11T02:14:13.670Z,19.97
2022-08-11T02:16:54.094Z,20.10
2022-08-11T02:19:45.392Z,19.94
2022-08-11T02:22:41.863Z,19.98
2022-08-11T02:25:23.526Z,20.02
2022-08-11T02:27:56.951Z,20.01
2022-08-11T02:30:28.679Z,19.92
2022-08-11T02:33:24.963Z,19.77
2022-08-11T02:36:04.718Z,19.49
2022-08-11T02:38:43.246Z,19.48
2022-08-11T02:41:36.186Z,19.61
2022-08-11T02:44:22.698Z,19.80
2022-08-11T02:47:00.043Z,19.53
2022-08-11T02:50:02.734Z,19.77
2022-08-11T02:52:42.249Z,19.67
2022-08-11T02:55:56.122Z,19.65
2022-08-11T02:58:17.637Z,19.51
2022-08-11T03:00:57.451Z,19.59
2022-08-11T03:03:33.261Z,19.80
2022-08-11T03:06:13.659Z,19.40
2022-08-11T03:08:54.442Z,19.39
2022-08-11T03:12:09.349Z,19.39
2022-08-11T03:15:05.470Z,19.62
2022-08-11T03:17:39.184Z,19.48
2022-08-11T03:20:22.560Z,19.29
2022-08-11T03:22:59.946Z,19.27
2022-08-11T03:25:35.519Z,19.68
2022-08-11T03:28:14.405Z,19.34
2022-08-11T03:30:49.883Z,19.30
2022-08-11T03:33:42.211Z,19.31
2022-08-11T03:36:29.519Z,19.47
2022-08-11T03:39:13.380Z,19.23
2022-08-11T03:42:04.378Z,19.15
2022-08-11T03:44:49.465Z,19.18
2022-08-11T03:47:35.399Z,19.16
2022-08-11T03:50:11.469Z,19.15
2022-08-11T03:52:50.642Z,19.04
2022-08-11T03:55:31.862Z,19.00
2022-08-11T03:58:41.676Z,18.78
2022-08-11T04:01:44.792Z,18.87
2022-08-11T04:04:51.720Z,19.00
2022-08-11T04:07:55.777Z,19.02
2022-08-11T04:10:46.197Z,19.04
2022-08-11T04:13:42.110Z,19.13
2022-08-11T04:16:40.463Z,19.09
2022-08-11T04:19:51.147Z,18.89
2022-08-11T04:23:03.284Z,18.90
2022-08-11T04:25:58.602Z,18.90
2022-08-11T04:28:56.533Z,19.00
2022-08-11T04:31:58.016Z,19.10
2022-08-11T04:34:41.674Z,19.17
2022-08-11T04:37:35.295Z,19.03
2022-08-11T04:40:21.333Z,19.18
2022-08-11T04:43:36.805Z,19.14
2022-08-11T04:46:45.213Z,19.25
2022-08-11T04:50:18.116Z,19.37
2022-08-11T04:53:23.696Z,19.24
2022-08-11T04:56:44.589Z,19.18
2022-08-11T05:00:08.167Z,19.53
2022-08-11T05:03:22.211Z,19.45
2022-08-11T05:06:14.155Z,19.62
2022-08-11T05:09:16.968Z,19.46
2022-08-11T05:12:03.480Z,19.26
2022-08-11T05:14:53.490Z,19.32
2022-08-11T05:17:55.611Z,19.38
2022-08-11T05:20:44.499Z,19.39
2022-08-11T05:23:31.305Z,19.62
2022-08-11T05:26:47.884Z,19.43
2022-08-11T05:30:01.972Z,19.65
2022-08-11T05:32:59.348Z,19.81
2022-08-11T05:36:00.632Z,19.81
2022-08-11T05:38:47.034Z,19.66
2022-08-11T05:41:38.455Z,19.98
2022-08-11T05:44:25.151Z,19.96
2022-08-11T05:47:12.444Z,20.14
2022-08-11T05:49:59.908Z,20.12
2022-08-11T05:52:55.399Z,19.97
2022-08-11T05:56:01.731Z,20.65
2022-08-11T05:58:42.381Z,20.35
2022-08-11T06:01:15.304Z,20.45
2022-08-11T06:04:04.130Z,20.65
2022-08-11T06:06:33.769Z,20.66
2022-08-11T06:09:03.162Z,20.53
2022-08-11T06:11:42.887Z,20.41
2022-08-11T06:14:16.496Z,20.45
2022-08-11T06:16:48.193Z,20.61
2022-08-11T06:19:16.958Z,20.68
2022-08-11T06:21:48.854Z,20.66
2022-08-11T06:24:17.997Z,20.75
2022-08-11T06:27:11.072Z,20.70
2022-08-11T06:29:54.265Z,20.80
2022-08-11T06:32:29.558Z,20.98
2022-08-11T06:35:09.794Z,21.35
2022-08-11T06:37:48.745Z,21.43
2022-08-11T06:40:30.079Z,21.53
2022-08-11T06:43:02.303Z,21.56
2022-08-11T06:45:41.968Z,21.55
2022-08-11T06:48:17.769Z,21.57
2022-08-11T06:51:09.237Z,21.62
2022-08-11T06:53:42.026Z,21.65
2022-08-11T06:56:48.005Z,21.99
2022-08-11T06:59:35.210Z,21.99
2022-08-11T07:02:10.128Z,22.33
2022-08-11T07:04:44.513Z,22.08
2022-08-11T07:08:00.325Z,22.30
2022-08-11T07:11:20.270Z,22.31
2022-08-11T07:14:10.632Z,22.37
2022-08-11T07:16:43.064Z,22.53
2022-08-11T07:19:31.047Z,22.42
2022-08-11T07:22:21.767Z,22.44
2022-08-11T07:25:24.654Z,22.40
2022-08-11T07:28:18.086Z,22.55
2022-08-11T07:30:47.598Z,22.76
2022-08-11T07:34:06.845Z,22.95
2022-08-11T07:36:19.720Z,22.99
2022-08-11T07:38:52.631Z,23.58
2022-08-11T07:41:24.374Z,23.60
2022-08-11T07:43:56.106Z,23.90
2022-08-11T07:46:42.829Z,24.02
2022-08-11T07:49:30.054Z,24.38
2022-08-11T07:52:17.871Z,24.35
2022-08-11T07:54:50.102Z,24.09
2022-08-11T07:57:57.741Z,24.16
2022-08-11T08:00:51.798Z,24.18
2022-08-11T08:03:38.969Z,24.22
2022-08-11T08:06:42.144Z,24.03
2022-08-11T08:09:30.561Z,24.50
2022-08-11T08:12:19.744Z,24.37
2022-08-11T08:15:05.225Z,24.49
2022-08-11T08:18:09.979Z,24.42
2022-08-11T08:20:52.002Z,24.46
2022-08-11T08:23:33.784Z,24.39
2022-08-11T08:26:27.450Z,24.91
2022-08-11T08:29:18.852Z,24.89
2022-08-11T08:31:50.963Z,24.88
2022-08-11T08:34:23.114Z,24.86
2022-08-11T08:36:52.913Z,24.99
2022-08-11T08:39:23.838Z,25.06
2022-08-11T08:42:04.169Z,25.21
2022-08-11T08:44:40.681Z,25.35
2022-08-11T08:47:14.200Z,25.55
2022-08-11T08:49:52.113Z,25.60
2022-08-11T08:52:30.988Z,25.83
2022-08-11T08:55:18.993Z,26.33
2022-08-11T08:57:55.903Z,26.51
2022-08-11T09:00:30.590Z,26.70
2022-08-11T09:03:22.778Z,26.97
2022-08-11T09:05:56.817Z,26.84
2022-08-11T09:08:26.055Z,26.61
2022-08-11T09:11:22.645Z,26.77
2022-08-11T09:14:05.160Z,27.32
2022-08-11T09:16:41.725Z,27.42
2022-08-11T09:19:10.443Z,27.40
2022-08-11T09:21:48.437Z,27.66
2022-08-11T09:24:37.790Z,27.62
2022-08-11T09:27:09.475Z,27.63
2022-08-11T09:29:42.074Z,28.03
2022-08-11T09:32:17.926Z,28.18
2022-08-11T09:34:46.795Z,28.46
2022-08-11T09:37:54.186Z,28.26
2022-08-11T09:40:33.878Z,28.03
2022-08-11T09:43:23.819Z,27.73
2022-08-11T09:45:55.412Z,28.41
2022-08-11T09:48:25.548Z,28.53
2022-08-11T09:50:56.884Z,28.31
2022-08-11T09:53:36.535Z,28.40
2022-08-11T09:56:30.873Z,28.89
2022-08-11T09:59:00.641Z,29.37
2022-08-11T10:01:40.839Z,29.25
2022-08-11T10:04:16.450Z,28.91
2022-08-11T10:07:05.538Z,30.18
2022-08-11T10:09:40.910Z,29.81
2022-08-11T10:12:13.281Z,31.36
2022-08-11T10:15:03.907Z,33.10
2022-08-11T10:17:40.509Z,34.77
2022-08-11T10:20:13.754Z,34.86
2022-08-11T10:23:01.095Z,33.80
2022-08-11T10:25:46.678Z,33.56
2022-08-11T10:28:33.639Z,32.50
2022-08-11T10:31:27.531Z,32.03
2022-08-11T10:34:10.403Z,31.86
2022-08-11T10:36:48.233Z,32.09
2022-08-11T10:39:21.602Z,32.56
2022-08-11T10:42:20.842Z,32.30
2022-08-11T10:45:04.500Z,32.04
2022-08-11T10:47:37.291Z,31.70
2022-08-11T10:50:28.866Z,31.21
2022-08-11T10:53:18.914Z,31.24
2022-08-11T10:56:06.765Z,31.17
2022-08-11T10:58:51.044Z,31.47
2022-08-11T11:01:26.134Z,31.35
2022-08-11T11:04:00.544Z,32.10
2022-08-11T11:06:36.846Z,32.07
2022-08-11T11:09:12.549Z,32.74
2022-08-11T11:12:04.152Z,33.15
2022-08-11T11:14:58.213Z,34.05
2022-08-11T11:17:49.358Z,34.20
2022-08-11T11:20:36.764Z,35.54
2022-08-11T11:23:16.792Z,36.66
2022-08-11T11:26:10.080Z,37.14
2022-08-11T11:29:14.248Z,37.39
2022-08-11T11:32:02.319Z,37.17
2022-08-11T11:35:02.064Z,38.01
2022-08-11T11:37:33.742Z,38.19
2022-08-11T11:40:10.394Z,38.91
2022-08-11T11:42:40.463Z,37.87
2022-08-11T11:45:10.666Z,38.26
2022-08-11T11:47:53.784Z,38.11
2022-08-11T11:50:32.756Z,37.52
2022-08-11T11:53:03.798Z,37.81
2022-08-11T11:55:35.245Z,38.36
2022-08-11T11:58:23.038Z,38.08
2022-08-11T12:01:12.791Z,38.24
2022-08-11T12:03:42.443Z,38.04
2022-08-11T12:06:15.322Z,38.45
2022-08-11T12:08:45.351Z,37.67
2022-08-11T12:11:34.197Z,37.69
2022-08-11T12:14:10.716Z,37.52
2022-08-11T12:16:46.175Z,37.76
2022-08-11T12:19:19.376Z,37.90
2022-08-11T12:22:06.438Z,37.59
2022-08-11T12:24:55.455Z,38.18
2022-08-11T12:27:27.038Z,37.45
2022-08-11T12:29:58.613Z,37.75
2022-08-11T12:32:31.130Z,38.42
2022-08-11T12:35:07.842Z,37.98
2022-08-11T12:37:42.314Z,38.03
2022-08-11T12:40:49.443Z,38.25
2022-08-11T12:43:43.123Z,38.07
2022-08-11T12:46:15.492Z,37.79
2022-08-11T12:49:05.891Z,37.87
2022-08-11T12:52:11.529Z,38.19
2022-08-11T12:54:52.814Z,38.50
2022-08-11T12:57:50.222Z,37.72
2022-08-11T13:00:39.850Z,37.13
2022-08-11T13:03:28.193Z,37.10
2022-08-11T13:05:59.309Z,37.58
2022-08-11T13:08:30.107Z,36.75
2022-08-11T13:11:19.119Z,36.28
2022-08-11T13:13:55.408Z,37.19
2022-08-11T13:16:52.454Z,37.60
2022-08-11T13:19:22.330Z,37.19
2022-08-11T13:21:52.828Z,37.06
2022-08-11T13:24:25.209Z,37.08
2022-08-11T13:26:53.945Z,36.93
2022-08-11T13:29:24.459Z,37.03
2022-08-11T13:31:58.743Z,36.86
2022-08-11T13:34:28.310Z,37.07
2022-08-11T13:36:58.610Z,37.01
2022-08-11T13:39:29.369Z,36.75
2022-08-11T13:42:00.448Z,36.69
2022-08-11T13:44:30.986Z,36.41
2022-08-11T13:47:04.668Z,36.10
2022-08-11T13:49:34.712Z,36.00
2022-08-11T13:52:05.467Z,36.24
2022-08-11T13:54:38.640Z,36.26
2022-08-11T13:57:13.855Z,36.28
2022-08-11T14:00:09.733Z,36.32
2022-08-11T14:02:45.558Z,35.74
2022-08-11T14:05:17.392Z,35.85
2022-08-11T14:07:50.681Z,36.16
2022-08-11T14:10:21.019Z,36.25
2022-08-11T14:13:12.566Z,36.40
2022-08-11T14:15:46.120Z,36.01
2022-08-11T14:18:20.300Z,36.28
2022-08-11T14:21:10.717Z,36.09
2022-08-11T14:23:41.831Z,36.22
2022-08-11T14:26:31.688Z,36.02
2022-08-11T14:29:03.687Z,35.72
2022-08-11T14:31:34.419Z,35.28
2022-08-11T14:34:06.449Z,34.51
2022-08-11T14:36:37.509Z,34.35
2022-08-11T14:39:13.108Z,34.67
2022-08-11T14:42:11.190Z,34.67
2022-08-11T14:45:16.685Z,34.00
2022-08-11T14:47:51.297Z,33.55
2022-08-11T14:50:23.974Z,33.52
2022-08-11T14:53:01.195Z,33.34
2022-08-11T14:55:48.933Z,33.60
2022-08-11T14:58:19.359Z,33.20
2022-08-11T15:00:48.591Z,32.94
2022-08-11T15:03:16.427Z,33.21
2022-08-11T15:05:56.561Z,32.91
2022-08-11T15:08:47.455Z,32.78
2022-08-11T15:11:35.199Z,32.71
2022-08-11T15:14:06.130Z,32.57
2022-08-11T15:16:52.458Z,32.73
2022-08-11T15:19:22.053Z,32.65
2022-08-11T15:22:09.430Z,32.62
2022-08-11T15:24:38.568Z,32.45
2022-08-11T15:27:30.034Z,32.42
2022-08-11T15:30:32.138Z,32.15
2022-08-11T15:33:22.937Z,32.27
2022-08-11T15:36:09.829Z,32.45
2022-08-11T15:38:43.861Z,32.03
2022-08-11T15:41:35.814Z,31.94
2022-08-11T15:44:44.739Z,31.87
2022-08-11T15:47:15.322Z,31.96
2022-08-11T15:50:11.128Z,32.20
2022-08-11T15:52:39.005Z,31.73
2022-08-11T15:55:10.280Z,31.78
2022-08-11T15:57:57.749Z,31.75
2022-08-11T16:00:44.483Z,31.54
2022-08-11T16:04:06.304Z,31.77
2022-08-11T16:06:23.906Z,31.61
2022-08-11T16:08:56.287Z,31.78
2022-08-11T16:11:27.548Z,31.61
2022-08-11T16:14:14.007Z,31.40
2022-08-11T16:16:46.097Z,31.46
2022-08-11T16:19:15.240Z,31.48
2022-08-11T16:21:44.936Z,31.44
2022-08-11T16:27:06.891Z,31.71
2022-08-11T16:27:13.463Z,31.71
2022-08-11T16:29:45.617Z,31.35
2022-08-11T16:32:19.355Z,31.51
2022-08-11T16:35:16.313Z,31.24
2022-08-11T16:38:04.175Z,31.43
2022-08-11T16:40:33.553Z,30.93
2022-08-11T16:43:24.181Z,30.90
2022-08-11T16:46:11.664Z,30.87
2022-08-11T16:48:42.655Z,31.03
2022-08-11T16:51:14.039Z,30.62
2022-08-11T16:53:59.726Z,30.46
2022-08-11T16:56:37.286Z,30.38
2022-08-11T16:59:15.905Z,30.37
2022-08-11T17:01:48.822Z,30.55
2022-08-11T17:04:41.864Z,30.56
2022-08-11T17:07:41.872Z,30.25
2022-08-11T17:10:51.143Z,30.12
2022-08-11T17:13:27.008Z,30.10
2022-08-11T17:16:08.987Z,30.29
2022-08-11T17:18:46.862Z,30.33
2022-08-11T17:21:21.636Z,30.37
2022-08-11T17:23:54.960Z,30.15
2022-08-11T17:26:27.856Z,29.82
2022-08-11T17:29:02.763Z,29.79
2022-08-11T17:32:04.381Z,29.57
2022-08-11T17:34:51.309Z,29.48
2022-08-11T17:37:20.954Z,29.46
2022-08-11T17:39:49.927Z,29.37
2022-08-11T17:42:36.452Z,29.44
2022-08-11T17:45:23.075Z,29.21
2022-08-11T17:48:10.636Z,29.64
2022-08-11T17:50:39.351Z,29.41
2022-08-11T17:53:25.182Z,29.31
2022-08-11T17:56:11.903Z,29.38
2022-08-11T17:58:59.017Z,29.04
2022-08-11T18:01:29.264Z,29.23
2022-08-11T18:03:58.874Z,29.08
2022-08-11T18:06:34.193Z,29.00
2022-08-11T18:09:24.538Z,28.91
2022-08-11T18:12:12.962Z,28.86
2022-08-11T18:15:03.493Z,28.65
2022-08-11T18:17:49.799Z,28.47
2022-08-11T18:20:37.643Z,28.22
2022-08-11T18:23:41.927Z,28.42
2022-08-11T18:26:36.609Z,28.34
2022-08-11T18:29:24.997Z,28.14
2022-08-11T18:32:21.163Z,27.91
2022-08-11T18:35:13.642Z,27.78
2022-08-11T18:38:05.670Z,27.62
2022-08-11T18:40:54.266Z,27.56
2022-08-11T18:43:43.074Z,27.49
2022-08-11T18:46:31.568Z,27.35
2022-08-11T18:49:22.680Z,27.27
2022-08-11T18:52:12.480Z,27.13
2022-08-11T18:55:03.653Z,27.05
2022-08-11T18:57:54.966Z,26.96
2022-08-11T19:00:42.276Z,26.88
2022-08-11T19:03:30.155Z,26.80
2022-08-11T19:06:39.813Z,26.71
2022-08-11T19:09:26.654Z,26.59
2022-08-11T19:12:15.538Z,26.54
2022-08-11T19:15:03.210Z,26.42
2022-08-11T19:17:51.244Z,26.36
2022-08-11T19:20:40.248Z,26.29
2022-08-11T19:23:28.253Z,26.22
2022-08-11T19:26:16.667Z,26.14
2022-08-11T19:29:07.661Z,26.07
2022-08-11T19:31:53.970Z,26.00
2022-08-11T19:34:41.695Z,25.97
2022-08-11T19:37:30.363Z,25.92
2022-08-11T19:40:19.947Z,25.86
2022-08-11T19:43:20.887Z,25.81
2022-08-11T19:46:17.302Z,25.76
2022-08-11T19:49:04.993Z,25.71
2022-08-11T19:51:54.207Z,25.64
2022-08-11T19:54:44.398Z,25.56
2022-08-11T19:57:35.719Z,25.58
2022-08-11T20:00:25.237Z,25.53
2022-08-11T20:03:18.791Z,25.55
2022-08-11T20:06:05.984Z,25.50
2022-08-11T20:08:56.444Z,25.52
2022-08-11T20:11:46.766Z,25.50
2022-08-11T20:14:33.522Z,25.44
2022-08-11T20:17:20.873Z,25.41
2022-08-11T20:20:09.025Z,25.45
2022-08-11T20:22:55.080Z,25.46
2022-08-11T20:25:43.339Z,25.36
2022-08-11T20:28:32.031Z,25.33
2022-08-11T20:31:17.850Z,25.24
2022-08-11T20:34:05.590Z,25.17
2022-08-11T20:36:55.101Z,25.09
2022-08-11T20:39:43.289Z,25.06
2022-08-11T20:42:31.081Z,25.13
2022-08-11T20:45:23.804Z,24.98
2022-08-11T20:48:15.291Z,24.94
2022-08-11T20:51:06.052Z,24.87
2022-08-11T20:53:56.682Z,24.87
2022-08-11T20:56:45.657Z,24.77
2022-08-11T20:59:49.303Z,24.88
2022-08-11T21:02:40.841Z,24.73
2022-08-11T21:06:08.695Z,24.72
2022-08-11T21:08:36.956Z,24.64
2022-08-11T21:11:27.983Z,24.62
2022-08-11T21:14:15.389Z,24.58
2022-08-11T21:17:04.550Z,24.59
2022-08-11T21:20:20.593Z,24.53
2022-08-11T21:23:14.981Z,24.50
2022-08-11T21:26:12.912Z,24.54
2022-08-11T21:29:01.780Z,24.48
2022-08-11T21:31:50.400Z,24.29
2022-08-11T21:34:38.678Z,24.20
2022-08-11T21:37:26.449Z,24.23
2022-08-11T21:40:16.948Z,24.15
2022-08-11T21:43:05.759Z,24.03
2022-08-11T21:45:55.569Z,23.73
2022-08-11T21:48:44.664Z,23.44
2022-08-11T21:51:30.461Z,23.39
2022-08-11T21:54:16.778Z,23.50
2022-08-11T21:57:04.470Z,23.54
2022-08-11T22:00:00.159Z,23.54
2022-08-11T22:02:49.006Z,23.63
2022-08-11T22:05:39.593Z,23.61
2022-08-11T22:08:26.311Z,23.63
2022-08-11T22:11:11.926Z,23.65
2022-08-11T22:14:05.954Z,23.67
2022-08-11T22:16:53.857Z,23.46
2022-08-11T22:19:42.051Z,23.46
2022-08-11T22:22:31.554Z,23.58
2022-08-11T22:25:18.671Z,23.46
2022-08-11T22:28:04.287Z,23.48
2022-08-11T22:30:50.263Z,23.25
2022-08-11T22:33:36.489Z,23.27
2022-08-11T22:36:30.415Z,23.28
2022-08-11T22:39:18.837Z,23.09
2022-08-11T22:42:04.958Z,22.82
2022-08-11T22:44:50.835Z,22.69
2022-08-11T22:47:40.370Z,22.20
2022-08-11T22:50:29.363Z,22.33
2022-08-11T22:53:17.637Z,22.46
2022-08-11T22:56:04.371Z,22.54
2022-08-11T22:58:50.736Z,22.54
2022-08-11T23:01:37.762Z,22.60
2022-08-11T23:04:24.338Z,22.71
2022-08-11T23:07:11.057Z,22.75
2022-08-11T23:09:58.829Z,22.80
2022-08-11T23:12:45.471Z,22.73
2022-08-11T23:15:33.201Z,22.74
2022-08-11T23:18:20.724Z,22.62
2022-08-11T23:21:06.988Z,22.65
2022-08-11T23:23:53.494Z,22.53
2022-08-11T23:26:41.634Z,22.61
2022-08-11T23:29:28.030Z,22.54
2022-08-11T23:32:14.867Z,22.59
2022-08-11T23:35:39.350Z,22.48
2022-08-11T23:38:11.483Z,22.41
2022-08-11T23:40:56.737Z,22.30
2022-08-11T23:43:43.817Z,22.16
2022-08-11T23:46:29.586Z,22.28
2022-08-11T23:49:17.943Z,21.96
2022-08-11T23:52:07.446Z,21.90
2022-08-11T23:54:54.610Z,21.99
2022-08-11T23:57:47.968Z,22.10
